createdAt,value
2019-04-14T00:00:42.736Z,97367.30
2019-04-14T00:01:54.817Z,97370.56
2019-04-14T00:02:49.155Z,97373.56
2019-04-14T00:03:50.751Z,97364.09
2019-04-14T00:04:44.485Z,97370.91
2019-04-14T00:05:35.915Z,97370.38
2019-04-14T00:06:26.665Z,97362.77
2019-04-14T00:07:18.806Z,97367.94
2019-04-14T00:08:11.054Z,97363.31
2019-04-14T00:09:03.159Z,97360.91
2019-04-14T00:09:52.437Z,97360.09
2019-04-14T00:10:44.247Z,97361.19
2019-04-14T00:11:41.238Z,97365.27
2019-04-14T00:12:32.036Z,97359.83
2019-04-14T00:13:23.929Z,97353.05
2019-04-14T00:14:16.724Z,97359.85
2019-04-14T00:15:23.430Z,97356.91
2019-04-14T00:16:00.925Z,97356.09
2019-04-14T00:16:55.322Z,97349.02
2019-04-14T00:17:45.773Z,97352.84
2019-04-14T00:18:36.771Z,97355.30
2019-04-14T00:19:28.395Z,97355.30
2019-04-14T00:20:18.681Z,97356.39
2019-04-14T00:21:10.867Z,97353.41
2019-04-14T00:22:03.078Z,97347.70
2019-04-14T00:22:53.436Z,97353.15
2019-04-14T00:23:45.679Z,97346.08
2019-04-14T00:24:36.668Z,97354.80
2019-04-14T00:25:28.336Z,97352.62
2019-04-14T00:26:27.291Z,97346.40
2019-04-14T00:27:19.270Z,97355.92
2019-04-14T00:28:09.520Z,97361.64
2019-04-14T00:29:00.211Z,97351.86
2019-04-14T00:29:50.398Z,97353.48
2019-04-14T00:30:40.663Z,97351.59
2019-04-14T00:31:31.265Z,97350.23
2019-04-14T00:32:24.730Z,97353.77
2019-04-14T00:33:14.963Z,97344.56
2019-04-14T00:34:09.353Z,97345.11
2019-04-14T00:35:32.071Z,97351.09
2019-04-14T00:36:40.230Z,97348.38
2019-04-14T00:37:59.400Z,97345.13
2019-04-14T00:38:50.007Z,97343.77
2019-04-14T00:39:44.319Z,97352.25
2019-04-14T00:40:41.845Z,97350.89
2019-04-14T00:41:47.409Z,97342.48
2019-04-14T00:42:49.548Z,97338.95
2019-04-14T00:44:08.578Z,97341.44
2019-04-14T00:45:30.602Z,97348.52
2019-04-14T00:46:23.267Z,97341.73
2019-04-14T00:47:50.844Z,97339.06
2019-04-14T00:48:29.772Z,97340.97
2019-04-14T00:49:20.528Z,97342.89
2019-04-14T00:50:12.787Z,97342.08
2019-04-14T00:51:04.878Z,97340.22
2019-04-14T00:51:57.014Z,97339.67
2019-04-14T00:52:46.491Z,97335.33
2019-04-14T00:53:38.182Z,97344.03
2019-04-14T00:54:28.256Z,97342.13
2019-04-14T00:55:19.088Z,97331.54
2019-04-14T00:56:10.393Z,97342.67
2019-04-14T00:56:59.508Z,97337.78
2019-04-14T00:57:50.905Z,97335.61
2019-04-14T00:58:41.261Z,97325.29
2019-04-14T00:59:31.805Z,97334.25
2019-04-14T01:00:23.401Z,97331.30
2019-04-14T01:01:15.474Z,97336.16
2019-04-14T01:02:05.683Z,97331.30
2019-04-14T01:02:56.621Z,97332.09
2019-04-14T01:03:46.886Z,97326.41
2019-04-14T01:04:38.503Z,97334.02
2019-04-14T01:05:32.604Z,97332.09
2019-04-14T01:06:20.824Z,97318.26
2019-04-14T01:07:10.822Z,97328.32
2019-04-14T01:08:01.334Z,97324.79
2019-04-14T01:08:53.306Z,97330.49
2019-04-14T01:09:44.133Z,97328.32
2019-04-14T01:10:34.419Z,97327.52
2019-04-14T01:11:25.215Z,97328.05
2019-04-14T01:12:17.088Z,97331.04
2019-04-14T01:13:10.758Z,97322.62
2019-04-14T01:13:59.311Z,97327.52
2019-04-14T01:14:49.575Z,97334.85
2019-04-14T01:15:51.500Z,97336.76
2019-04-14T01:16:30.380Z,97328.60
2019-04-14T01:17:21.932Z,97323.72
2019-04-14T01:18:10.954Z,97329.70
2019-04-14T01:19:02.650Z,97319.38
2019-04-14T01:19:52.919Z,97327.53
2019-04-14T01:20:44.945Z,97328.11
2019-04-14T01:21:34.937Z,97325.13
2019-04-14T01:22:24.949Z,97325.13
2019-04-14T01:23:15.150Z,97326.77
2019-04-14T01:24:07.437Z,97324.59
2019-04-14T01:24:57.581Z,97327.31
2019-04-14T01:25:47.817Z,97323.78
2019-04-14T01:26:39.894Z,97329.22
2019-04-14T01:27:29.936Z,97324.91
2019-04-14T01:28:20.327Z,97320.02
2019-04-14T01:29:12.283Z,97324.09
2019-04-14T01:30:02.977Z,97318.66
2019-04-14T01:30:52.953Z,97316.23
2019-04-14T01:31:44.602Z,97321.12
2019-04-14T01:32:35.500Z,97318.95
2019-04-14T01:33:25.819Z,97320.85
2019-04-14T01:34:17.375Z,97316.51
2019-04-14T01:35:09.526Z,97317.87
2019-04-14T01:35:59.511Z,97322.49
2019-04-14T01:36:50.012Z,97326.02
2019-04-14T01:37:40.443Z,97326.02
2019-04-14T01:38:31.942Z,97324.43
2019-04-14T01:39:22.734Z,97330.41
2019-04-14T01:40:14.763Z,97321.18
2019-04-14T01:41:06.484Z,97331.51
2019-04-14T01:41:58.510Z,97322.00
2019-04-14T01:42:48.732Z,97321.18
2019-04-14T01:43:40.596Z,97323.64
2019-04-14T01:44:30.906Z,97323.09
2019-04-14T01:45:21.243Z,97327.16
2019-04-14T01:46:18.632Z,97327.71
2019-04-14T01:47:03.118Z,97325.27
2019-04-14T01:47:53.714Z,97323.64
2019-04-14T01:48:45.370Z,97329.89
2019-04-14T01:49:35.429Z,97323.64
2019-04-14T01:50:33.133Z,97319.56
2019-04-14T01:51:37.399Z,97317.94
2019-04-14T01:53:01.142Z,97319.56
2019-04-14T01:54:06.039Z,97321.47
2019-04-14T01:55:22.284Z,97322.59
2019-04-14T01:56:34.437Z,97321.78
2019-04-14T01:57:35.647Z,97307.11
2019-04-14T01:58:36.036Z,97312.28
2019-04-14T01:59:26.258Z,97314.19
2019-04-14T02:00:24.975Z,97312.59
2019-04-14T02:01:19.540Z,97310.42
2019-04-14T02:02:10.363Z,97312.33
2019-04-14T02:03:02.122Z,97314.78
2019-04-14T02:03:52.795Z,97304.46
2019-04-14T02:04:44.380Z,97302.55
2019-04-14T02:05:34.684Z,97308.80
2019-04-14T02:06:26.615Z,97302.55
2019-04-14T02:07:16.641Z,97307.18
2019-04-14T02:08:06.957Z,97307.98
2019-04-14T02:08:57.057Z,97301.75
2019-04-14T02:09:48.916Z,97301.75
2019-04-14T02:10:39.242Z,97306.63
2019-04-14T02:11:29.157Z,97306.63
2019-04-14T02:12:19.230Z,97299.58
2019-04-14T02:13:11.230Z,97306.37
2019-04-14T02:14:01.499Z,97304.46
2019-04-14T02:14:51.709Z,97302.84
2019-04-14T02:15:42.364Z,97296.59
2019-04-14T02:16:40.241Z,97303.16
2019-04-14T02:17:24.242Z,97305.88
2019-04-14T02:18:14.358Z,97299.62
2019-04-14T02:19:08.786Z,97300.98
2019-04-14T02:20:03.223Z,97297.73
2019-04-14T02:20:53.590Z,97299.36
2019-04-14T02:21:43.689Z,97303.98
2019-04-14T02:22:35.486Z,97295.02
2019-04-14T02:23:25.682Z,97293.11
2019-04-14T02:24:15.702Z,97305.08
2019-04-14T02:25:07.888Z,97300.77
2019-04-14T02:26:00.240Z,97304.27
2019-04-14T02:26:52.506Z,97295.83
2019-04-14T02:27:42.863Z,97299.09
2019-04-14T02:28:33.059Z,97295.56
2019-04-14T02:29:23.330Z,97301.27
2019-04-14T02:30:19.571Z,97302.63
2019-04-14T02:31:21.082Z,97301.81
2019-04-14T02:32:29.993Z,97304.53
2019-04-14T02:33:17.209Z,97297.19
2019-04-14T02:33:59.033Z,97303.72
2019-04-14T02:34:57.401Z,97303.98
2019-04-14T02:35:45.165Z,97303.72
2019-04-14T02:38:23.405Z,97298.05
2019-04-14T02:39:08.813Z,97308.34
2019-04-14T02:40:04.030Z,97298.59
2019-04-14T02:40:59.727Z,97301.31
2019-04-14T02:41:52.841Z,97299.41
2019-04-14T02:42:37.872Z,97299.41
2019-04-14T02:44:12.213Z,97300.50
2019-04-14T02:48:03.235Z,97295.06
2019-04-14T02:49:19.393Z,97301.31
2019-04-14T02:50:10.903Z,97299.41
2019-04-14T02:51:10.845Z,97299.41
2019-04-14T02:51:49.738Z,97290.98
2019-04-14T02:52:46.980Z,97301.31
2019-04-14T02:54:36.664Z,97289.09
2019-04-14T02:55:19.424Z,97306.20
2019-04-14T02:56:16.452Z,97292.03
2019-04-14T02:57:56.840Z,97301.00
2019-04-14T02:58:52.300Z,97291.25
2019-04-14T02:59:39.473Z,97295.33
2019-04-14T03:00:31.630Z,97292.61
2019-04-14T03:01:27.644Z,97295.33
2019-04-14T03:02:23.144Z,97296.97
2019-04-14T03:02:58.464Z,97292.61
2019-04-14T03:03:54.342Z,97295.06
2019-04-14T03:04:45.472Z,97290.98
2019-04-14T03:05:39.623Z,97288.01
2019-04-14T03:06:17.883Z,97292.34
2019-04-14T03:07:21.865Z,97293.70
2019-04-14T03:08:11.405Z,97292.63
2019-04-14T03:09:09.161Z,97293.73
2019-04-14T03:09:50.218Z,97292.37
2019-04-14T03:10:41.865Z,97287.74
2019-04-14T03:11:31.556Z,97291.82
2019-04-14T03:12:26.383Z,97283.41
2019-04-14T03:13:28.746Z,97280.14
2019-04-14T03:14:07.479Z,97291.01
2019-04-14T03:14:55.639Z,97288.84
2019-04-14T03:15:50.917Z,97288.84
2019-04-14T03:17:13.877Z,97282.05
2019-04-14T03:18:24.513Z,97291.27
2019-04-14T03:19:27.570Z,97282.31
2019-04-14T03:21:36.339Z,97290.20
2019-04-14T03:24:07.037Z,97276.11
2019-04-14T03:25:00.599Z,97281.83
2019-04-14T03:26:17.966Z,97269.88
2019-04-14T03:27:36.074Z,97283.47
2019-04-14T03:28:27.864Z,97270.75
2019-04-14T03:29:29.349Z,97279.99
2019-04-14T03:31:39.149Z,97281.08
2019-04-14T03:34:17.744Z,97276.77
2019-04-14T03:34:58.950Z,97278.91
2019-04-14T03:36:58.353Z,97275.41
2019-04-14T03:38:14.132Z,97273.48
2019-04-14T03:40:48.934Z,97274.05
2019-04-14T03:42:31.353Z,97263.19
2019-04-14T03:43:30.330Z,97271.58
2019-04-14T03:44:11.781Z,97268.62
2019-04-14T03:48:31.865Z,97265.33
2019-04-14T03:49:26.925Z,97271.03
2019-04-14T03:51:08.487Z,97273.75
2019-04-14T03:51:57.840Z,97277.81
2019-04-14T03:52:49.774Z,97277.27
2019-04-14T03:53:37.735Z,97269.67
2019-04-14T03:54:20.501Z,97280.53
2019-04-14T03:55:09.373Z,97267.77
2019-04-14T03:56:22.862Z,97275.91
2019-04-14T03:57:17.185Z,97271.84
2019-04-14T03:58:08.502Z,97271.03
2019-04-14T03:58:59.826Z,97279.49
2019-04-14T03:59:52.118Z,97275.65
2019-04-14T04:00:42.230Z,97275.65
2019-04-14T04:01:34.526Z,97272.13
2019-04-14T04:02:24.784Z,97278.13
2019-04-14T04:03:15.290Z,97273.48
2019-04-14T04:04:07.412Z,97277.55
2019-04-14T04:04:57.678Z,97281.08
2019-04-14T04:05:47.882Z,97274.29
2019-04-14T04:06:38.193Z,97274.84
2019-04-14T04:07:30.252Z,97272.93
2019-04-14T04:08:22.430Z,97273.20
2019-04-14T04:09:12.798Z,97274.55
2019-04-14T04:10:11.455Z,97278.89
2019-04-14T04:11:02.126Z,97270.48
2019-04-14T04:11:54.035Z,97272.11
2019-04-14T04:12:44.387Z,97272.65
2019-04-14T04:13:35.243Z,97264.50
2019-04-14T04:14:27.096Z,97274.82
2019-04-14T04:15:17.155Z,97270.75
2019-04-14T04:16:20.268Z,97268.84
2019-04-14T04:17:29.808Z,97271.56
2019-04-14T04:18:26.556Z,97269.11
2019-04-14T04:19:25.124Z,97273.18
2019-04-14T04:20:23.859Z,97277.48
2019-04-14T04:21:29.120Z,97264.22
2019-04-14T04:22:39.521Z,97277.25
2019-04-14T04:23:44.729Z,97267.75
2019-04-14T04:24:54.915Z,97272.91
2019-04-14T04:25:53.551Z,97274.82
2019-04-14T04:27:04.647Z,97272.37
2019-04-14T04:28:12.471Z,97276.99
2019-04-14T04:29:20.113Z,97280.80
2019-04-14T04:30:32.378Z,97278.08
2019-04-14T04:31:41.711Z,97280.53
2019-04-14T04:33:06.619Z,97284.06
2019-04-14T04:34:07.985Z,97276.77
2019-04-14T04:35:23.974Z,97280.03
2019-04-14T04:36:24.809Z,97272.44
2019-04-14T04:37:26.460Z,97274.89
2019-04-14T04:38:31.289Z,97279.23
2019-04-14T04:39:35.285Z,97275.41
2019-04-14T04:40:26.831Z,97276.77
2019-04-14T04:41:16.889Z,97277.01
2019-04-14T04:42:07.146Z,97281.08
2019-04-14T04:42:59.114Z,97281.33
2019-04-14T04:43:49.469Z,97284.06
2019-04-14T04:44:40.260Z,97280.80
2019-04-14T04:45:32.044Z,97278.89
2019-04-14T04:46:22.050Z,97278.89
2019-04-14T04:47:14.349Z,97282.42
2019-04-14T04:48:04.667Z,97280.52
2019-04-14T04:49:03.403Z,97284.83
2019-04-14T04:49:46.874Z,97280.75
2019-04-14T04:50:37.334Z,97285.36
2019-04-14T04:51:28.967Z,97288.34
2019-04-14T04:52:19.393Z,97287.80
2019-04-14T04:53:11.565Z,97288.84
2019-04-14T04:54:01.787Z,97282.86
2019-04-14T04:54:53.803Z,97290.46
2019-04-14T04:55:45.985Z,97292.09
2019-04-14T04:56:36.223Z,97293.97
2019-04-14T04:57:26.422Z,97287.41
2019-04-14T04:58:17.348Z,97293.11
2019-04-14T04:59:07.813Z,97292.83
2019-04-14T05:00:00.560Z,97288.70
2019-04-14T05:00:52.583Z,97292.78
2019-04-14T05:01:40.823Z,97293.31
2019-04-14T05:02:32.930Z,97296.29
2019-04-14T05:03:23.398Z,97294.13
2019-04-14T05:04:13.694Z,97292.45
2019-04-14T05:05:25.650Z,97291.90
2019-04-14T05:07:12.436Z,97295.43
2019-04-14T05:08:02.842Z,97290.81
2019-04-14T05:08:59.154Z,97301.13
2019-04-14T05:10:27.044Z,97297.60
2019-04-14T05:11:23.074Z,97303.58
2019-04-14T05:12:21.725Z,97300.87
2019-04-14T05:13:20.596Z,97307.11
2019-04-14T05:14:15.107Z,97309.83
2019-04-14T05:15:40.706Z,97308.75
2019-04-14T05:16:30.900Z,97305.75
2019-04-14T05:17:21.313Z,97315.27
2019-04-14T05:18:20.105Z,97310.64
2019-04-14T05:19:17.329Z,97314.98
2019-04-14T05:20:00.893Z,97306.02
2019-04-14T05:20:53.102Z,97310.05
2019-04-14T05:21:45.155Z,97313.58
2019-04-14T05:22:35.397Z,97310.58
2019-04-14T05:23:25.675Z,97295.08
2019-04-14T05:24:16.088Z,97297.25
2019-04-14T05:25:08.049Z,97311.08
2019-04-14T05:26:00.455Z,97308.35
2019-04-14T05:26:50.617Z,97303.19
2019-04-14T05:27:41.584Z,97302.09
2019-04-14T05:28:33.243Z,97305.88
2019-04-14T05:29:25.364Z,97308.28
2019-04-14T05:30:17.477Z,97300.39
2019-04-14T05:31:07.655Z,97306.09
2019-04-14T05:32:00.140Z,97309.58
2019-04-14T05:32:50.509Z,97305.50
2019-04-14T05:33:42.596Z,97305.50
2019-04-14T05:34:33.135Z,97300.88
2019-04-14T05:35:24.941Z,97304.41
2019-04-14T05:36:15.718Z,97306.02
2019-04-14T05:37:07.190Z,97299.46
2019-04-14T05:37:57.467Z,97303.54
2019-04-14T05:38:49.572Z,97305.97
2019-04-14T05:39:46.132Z,97311.67
2019-04-14T05:40:36.416Z,97310.81
2019-04-14T05:41:26.516Z,97306.73
2019-04-14T05:42:22.264Z,97306.19
2019-04-14T05:43:09.181Z,97310.53
2019-04-14T05:44:02.056Z,97309.43
2019-04-14T05:44:51.540Z,97315.36
2019-04-14T05:45:43.682Z,97314.81
2019-04-14T05:46:38.222Z,97306.64
2019-04-14T05:47:28.911Z,97309.05
2019-04-14T05:48:20.388Z,97315.56
2019-04-14T05:49:18.681Z,97309.28
2019-04-14T05:50:01.503Z,97315.22
2019-04-14T05:50:53.514Z,97309.75
2019-04-14T05:51:45.842Z,97321.13
2019-04-14T05:52:38.419Z,97315.41
2019-04-14T05:53:28.967Z,97320.24
2019-04-14T05:54:21.245Z,97315.88
2019-04-14T05:55:15.594Z,97310.42
2019-04-14T05:56:06.154Z,97313.66
2019-04-14T05:56:58.064Z,97313.06
2019-04-14T05:57:50.173Z,97314.69
2019-04-14T05:58:40.456Z,97314.08
2019-04-14T05:59:31.347Z,97317.87
2019-04-14T06:00:23.404Z,97313.50
2019-04-14T06:01:18.169Z,97308.81
2019-04-14T06:02:09.345Z,97310.70
2019-04-14T06:02:59.500Z,97314.18
2019-04-14T06:03:49.835Z,97313.34
2019-04-14T06:04:41.773Z,97315.20
2019-04-14T06:05:31.882Z,97313.23
2019-04-14T06:06:22.737Z,97318.67
2019-04-14T06:07:16.469Z,97314.85
2019-04-14T06:08:07.587Z,97315.64
2019-04-14T06:08:58.566Z,97317.00
2019-04-14T06:09:49.238Z,97313.14
2019-04-14T06:10:40.083Z,97320.47
2019-04-14T06:11:30.725Z,97318.02
2019-04-14T06:12:22.949Z,97317.95
2019-04-14T06:13:17.542Z,97320.65
2019-04-14T06:14:08.781Z,97324.41
2019-04-14T06:14:59.391Z,97325.48
2019-04-14T06:15:54.603Z,97324.67
2019-04-14T06:16:45.835Z,97318.39
2019-04-14T06:17:36.976Z,97324.88
2019-04-14T06:18:27.449Z,97321.87
2019-04-14T06:19:18.238Z,97318.86
2019-04-14T06:20:08.570Z,97323.17
2019-04-14T06:21:02.158Z,97317.98
2019-04-14T06:21:52.843Z,97319.61
2019-04-14T06:22:44.061Z,97320.10
2019-04-14T06:23:37.282Z,97320.63
2019-04-14T06:24:27.740Z,97319.81
2019-04-14T06:25:18.168Z,97322.50
2019-04-14T06:26:09.551Z,97320.82
2019-04-14T06:27:00.658Z,97317.81
2019-04-14T06:27:52.325Z,97327.83
2019-04-14T06:28:42.966Z,97318.01
2019-04-14T06:29:35.302Z,97321.25
2019-04-14T06:31:03.533Z,97316.62
2019-04-14T06:32:23.191Z,97320.38
2019-04-14T06:33:35.742Z,97323.89
2019-04-14T06:34:48.715Z,97316.76
2019-04-14T06:36:08.599Z,97323.56
2019-04-14T06:37:21.989Z,97320.55
2019-04-14T06:38:17.804Z,97324.38
2019-04-14T06:39:12.670Z,97323.30
2019-04-14T06:40:05.119Z,97326.34
2019-04-14T06:41:03.332Z,97322.81
2019-04-14T06:41:56.446Z,97324.17
2019-04-14T06:42:47.779Z,97319.54
2019-04-14T06:43:48.310Z,97323.08
2019-04-14T06:44:29.166Z,97323.89
2019-04-14T06:45:19.664Z,97324.12
2019-04-14T06:46:11.067Z,97323.02
2019-04-14T06:47:03.270Z,97314.30
2019-04-14T06:47:53.681Z,97324.90
2019-04-14T06:48:44.321Z,97314.81
2019-04-14T06:49:35.118Z,97322.92
2019-04-14T06:50:26.963Z,97316.66
2019-04-14T06:51:19.386Z,97323.19
2019-04-14T06:52:10.549Z,97316.08
2019-04-14T06:53:02.043Z,97321.76
2019-04-14T06:53:53.482Z,97314.66
2019-04-14T06:54:45.058Z,97325.00
2019-04-14T06:55:36.172Z,97323.35
2019-04-14T06:56:26.226Z,97315.73
2019-04-14T06:57:17.717Z,97324.65
2019-04-14T06:58:08.634Z,97312.65
2019-04-14T06:58:59.174Z,97319.95
2019-04-14T06:59:50.238Z,97323.19
2019-04-14T07:00:41.854Z,97325.05
2019-04-14T07:01:33.912Z,97329.65
2019-04-14T07:02:26.754Z,97323.36
2019-04-14T07:03:17.178Z,97331.47
2019-04-14T07:04:07.349Z,97328.45
2019-04-14T07:04:58.534Z,97327.90
2019-04-14T07:05:49.977Z,97334.64
2019-04-14T07:06:41.872Z,97328.91
2019-04-14T07:07:33.219Z,97329.72
2019-04-14T07:08:24.287Z,97324.75
2019-04-14T07:09:15.732Z,97333.19
2019-04-14T07:10:07.698Z,97336.17
2019-04-14T07:11:01.202Z,97329.59
2019-04-14T07:11:53.049Z,97333.13
2019-04-14T07:12:47.400Z,97342.37
2019-04-14T07:13:40.101Z,97332.83
2019-04-14T07:14:33.094Z,97340.16
2019-04-14T07:15:24.941Z,97343.92
2019-04-14T07:16:15.599Z,97340.39
2019-04-14T07:17:06.889Z,97340.64
2019-04-14T07:17:58.457Z,97348.20
2019-04-14T07:18:49.799Z,97345.00
2019-04-14T07:19:41.466Z,97347.17
2019-04-14T07:20:33.857Z,97346.36
2019-04-14T07:21:24.988Z,97341.72
2019-04-14T07:22:18.249Z,97338.44
2019-04-14T07:23:08.905Z,97344.93
2019-04-14T07:23:59.122Z,97342.53
2019-04-14T07:24:50.392Z,97344.44
2019-04-14T07:25:40.993Z,97345.00
2019-04-14T07:26:32.813Z,97342.01
2019-04-14T07:27:24.718Z,97349.64
2019-04-14T07:28:17.171Z,97353.72
2019-04-14T07:29:08.565Z,97354.28
2019-04-14T07:30:04.851Z,97351.00
2019-04-14T07:31:13.095Z,97352.36
2019-04-14T07:32:21.771Z,97351.26
2019-04-14T07:33:29.853Z,97347.72
2019-04-14T07:34:38.835Z,97352.09
2019-04-14T07:36:06.325Z,97347.46
2019-04-14T07:37:15.315Z,97347.72
2019-04-14T07:38:22.603Z,97348.83
2019-04-14T07:39:48.606Z,97347.17
2019-04-14T07:40:59.218Z,97346.30
2019-04-14T07:41:58.064Z,97346.55
2019-04-14T07:43:05.203Z,97352.81
2019-04-14T07:44:15.041Z,97350.34
2019-04-14T07:45:17.286Z,97348.66
2019-04-14T07:46:25.744Z,97343.73
2019-04-14T07:47:29.795Z,97347.27
2019-04-14T07:48:35.820Z,97343.98
2019-04-14T07:49:44.670Z,97339.89
2019-04-14T07:50:57.029Z,97339.89
2019-04-14T07:51:57.945Z,97344.53
2019-04-14T07:53:20.488Z,97344.24
2019-04-14T07:54:33.314Z,97350.25
2019-04-14T07:55:46.311Z,97344.47
2019-04-14T07:56:57.612Z,97350.73
2019-04-14T07:57:58.078Z,97348.78
2019-04-14T07:59:03.884Z,97346.05
2019-04-14T08:00:03.100Z,97349.02
2019-04-14T08:01:03.360Z,97352.52
2019-04-14T08:02:32.035Z,97348.36
2019-04-14T08:03:45.227Z,97355.14
2019-04-14T08:04:41.048Z,97353.96
2019-04-14T08:05:36.474Z,97344.61
2019-04-14T08:06:27.748Z,97340.48
2019-04-14T08:07:20.047Z,97339.05
2019-04-14T08:08:11.085Z,97341.48
2019-04-14T08:09:03.522Z,97346.31
2019-04-14T08:09:56.250Z,97344.59
2019-04-14T08:10:47.859Z,97346.69
2019-04-14T08:11:39.578Z,97351.00
2019-04-14T08:12:30.966Z,97350.08
2019-04-14T08:13:21.187Z,97352.73
2019-04-14T08:14:16.626Z,97341.53
2019-04-14T08:15:08.802Z,97343.93
2019-04-14T08:16:00.507Z,97338.44
2019-04-14T08:16:54.736Z,97343.59
2019-04-14T08:17:46.461Z,97339.98
2019-04-14T08:18:40.215Z,97347.55
2019-04-14T08:19:31.993Z,97346.17
2019-04-14T08:20:27.725Z,97341.23
2019-04-14T08:21:13.692Z,97345.59
2019-04-14T08:22:05.155Z,97340.38
2019-04-14T08:22:57.868Z,97335.41
2019-04-14T08:23:49.038Z,97342.73
2019-04-14T08:24:41.037Z,97336.14
2019-04-14T08:25:33.005Z,97339.64
2019-04-14T08:26:24.030Z,97334.44
2019-04-14T08:27:18.636Z,97338.75
2019-04-14T08:28:09.911Z,97337.91
2019-04-14T08:29:01.495Z,97344.42
2019-04-14T08:29:51.666Z,97345.20
2019-04-14T08:30:49.039Z,97344.17
2019-04-14T08:31:55.744Z,97348.27
2019-04-14T08:32:46.184Z,97345.58
2019-04-14T08:33:36.680Z,97346.47
2019-04-14T08:34:27.794Z,97351.16
2019-04-14T08:35:19.006Z,97342.48
2019-04-14T08:36:10.656Z,97343.11
2019-04-14T08:37:01.931Z,97343.97
2019-04-14T08:37:52.312Z,97348.13
2019-04-14T08:38:44.691Z,97347.36
2019-04-14T08:39:37.781Z,97346.06
2019-04-14T08:40:29.697Z,97352.11
2019-04-14T08:41:20.488Z,97350.02
2019-04-14T08:42:17.646Z,97344.37
2019-04-14T08:43:27.898Z,97342.49
2019-04-14T08:44:27.443Z,97346.10
2019-04-14T08:45:35.374Z,97339.88
2019-04-14T08:46:44.239Z,97342.12
2019-04-14T08:47:49.750Z,97343.77
2019-04-14T08:49:03.035Z,97338.32
2019-04-14T08:50:09.564Z,97339.43
2019-04-14T08:51:29.134Z,97349.23
2019-04-14T08:52:51.178Z,97345.14
2019-04-14T08:54:01.369Z,97348.13
2019-04-14T08:55:00.106Z,97345.10
2019-04-14T08:56:12.104Z,97350.23
2019-04-14T08:57:10.727Z,97347.20
2019-04-14T08:58:09.739Z,97347.46
2019-04-14T08:59:21.139Z,97344.41
2019-04-14T09:00:15.764Z,97354.47
2019-04-14T09:01:28.405Z,97352.48
2019-04-14T09:02:30.187Z,97349.16
2019-04-14T09:03:38.628Z,97352.11
2019-04-14T09:04:40.440Z,97351.34
2019-04-14T09:05:51.061Z,97352.70
2019-04-14T09:07:01.685Z,97348.02
2019-04-14T09:07:59.010Z,97350.75
2019-04-14T09:09:09.871Z,97354.84
2019-04-14T09:10:26.572Z,97360.30
2019-04-14T09:11:20.655Z,97354.29
2019-04-14T09:12:16.071Z,97352.89
2019-04-14T09:13:05.429Z,97355.61
2019-04-14T09:13:55.556Z,97362.11
2019-04-14T09:14:56.843Z,97358.83
2019-04-14T09:15:38.287Z,97362.88
2019-04-14T09:16:28.800Z,97359.05
2019-04-14T09:17:19.787Z,97360.08
2019-04-14T09:18:11.154Z,97363.06
2019-04-14T09:19:07.727Z,97365.23
2019-04-14T09:19:53.191Z,97357.86
2019-04-14T09:20:52.194Z,97354.03
2019-04-14T09:21:35.231Z,97355.06
2019-04-14T09:22:25.550Z,97352.33
2019-04-14T09:23:15.568Z,97347.39
2019-04-14T09:24:13.451Z,97355.83
2019-04-14T09:25:04.294Z,97348.68
2019-04-14T09:25:56.338Z,97350.55
2019-04-14T09:26:47.359Z,97348.86
2019-04-14T09:27:38.519Z,97351.30
2019-04-14T09:28:29.716Z,97345.53
2019-04-14T09:29:20.431Z,97341.37
2019-04-14T09:30:12.002Z,97350.06
2019-04-14T09:31:03.370Z,97339.96
2019-04-14T09:31:54.760Z,97344.87
2019-04-14T09:32:46.560Z,97344.79
2019-04-14T09:33:38.445Z,97346.97
2019-04-14T09:34:28.427Z,97346.41
2019-04-14T09:35:18.925Z,97347.22
2019-04-14T09:36:10.537Z,97344.97
2019-04-14T09:37:01.985Z,97347.66
2019-04-14T09:37:52.589Z,97345.73
2019-04-14T09:38:43.495Z,97345.66
2019-04-14T09:39:34.675Z,97347.28
2019-04-14T09:40:26.264Z,97350.27
2019-04-14T09:41:17.497Z,97346.73
2019-04-14T09:42:08.445Z,97343.11
2019-04-14T09:42:59.811Z,97351.30
2019-04-14T09:43:50.416Z,97347.77
2019-04-14T09:44:41.195Z,97346.66
2019-04-14T09:45:32.075Z,97340.64
2019-04-14T09:46:22.666Z,97351.00
2019-04-14T09:47:14.038Z,97338.72
2019-04-14T09:48:05.161Z,97346.36
2019-04-14T09:48:56.115Z,97343.33
2019-04-14T09:49:46.849Z,97347.97
2019-04-14T09:50:38.990Z,97342.73
2019-04-14T09:51:29.993Z,97347.09
2019-04-14T09:52:20.878Z,97348.45
2019-04-14T09:53:12.299Z,97349.81
2019-04-14T09:54:04.202Z,97338.64
2019-04-14T09:54:56.851Z,97343.55
2019-04-14T09:55:48.519Z,97347.09
2019-04-14T09:56:38.825Z,97346.53
2019-04-14T09:57:29.737Z,97350.07
2019-04-14T09:58:22.530Z,97354.17
2019-04-14T09:59:13.078Z,97352.25
2019-04-14T10:00:03.916Z,97351.95
2019-04-14T10:00:54.489Z,97359.00
2019-04-14T10:01:45.404Z,97356.52
2019-04-14T10:02:36.793Z,97353.45
2019-04-14T10:03:27.796Z,97361.08
2019-04-14T10:04:18.381Z,97356.69
2019-04-14T10:05:09.190Z,97354.21
2019-04-14T10:06:00.897Z,97358.78
2019-04-14T10:06:52.215Z,97354.94
2019-04-14T10:07:42.816Z,97361.39
2019-04-14T10:08:33.398Z,97360.76
2019-04-14T10:09:23.872Z,97357.98
2019-04-14T10:10:14.761Z,97355.68
2019-04-14T10:11:05.526Z,97360.81
2019-04-14T10:11:58.014Z,97359.95
2019-04-14T10:12:48.832Z,97357.73
2019-04-14T10:13:39.693Z,97357.91
2019-04-14T10:14:30.866Z,97356.45
2019-04-14T10:15:21.205Z,97358.89
2019-04-14T10:16:12.977Z,97360.17
2019-04-14T10:17:03.365Z,97361.74
2019-04-14T10:17:55.907Z,97361.74
2019-04-14T10:18:47.484Z,97356.58
2019-04-14T10:19:37.644Z,97362.52
2019-04-14T10:20:28.738Z,97357.87
2019-04-14T10:21:19.624Z,97359.48
2019-04-14T10:22:09.754Z,97355.64
2019-04-14T10:23:01.138Z,97363.28
2019-04-14T10:23:51.927Z,97361.36
2019-04-14T10:24:43.214Z,97356.12
2019-04-14T10:25:34.932Z,97352.02
2019-04-14T10:26:26.112Z,97359.36
2019-04-14T10:27:18.487Z,97362.34
2019-04-14T10:28:08.934Z,97357.13
2019-04-14T10:29:01.594Z,97355.77
2019-04-14T10:29:53.367Z,97367.42
2019-04-14T10:30:43.945Z,97362.21
2019-04-14T10:31:35.783Z,97364.69
2019-04-14T10:32:26.825Z,97365.80
2019-04-14T10:33:18.310Z,97363.63
2019-04-14T10:34:09.975Z,97362.82
2019-04-14T10:34:59.881Z,97362.34
2019-04-14T10:35:51.062Z,97370.29
2019-04-14T10:36:41.665Z,97368.67
2019-04-14T10:37:32.912Z,97369.30
2019-04-14T10:38:24.766Z,97377.00
2019-04-14T10:39:15.906Z,97375.96
2019-04-14T10:40:06.439Z,97380.11
2019-04-14T10:40:57.692Z,97375.03
2019-04-14T10:41:50.305Z,97372.93
2019-04-14T10:42:42.053Z,97374.90
2019-04-14T10:43:34.368Z,97375.23
2019-04-14T10:44:24.402Z,97376.34
2019-04-14T10:45:15.082Z,97368.45
2019-04-14T10:46:05.679Z,97378.82
2019-04-14T10:46:56.230Z,97372.33
2019-04-14T10:47:46.701Z,97373.69
2019-04-14T10:48:37.953Z,97379.16
2019-04-14T10:49:28.927Z,97375.05
2019-04-14T10:50:30.209Z,97373.91
2019-04-14T10:51:12.404Z,97378.56
2019-04-14T10:52:03.459Z,97363.87
2019-04-14T10:52:54.952Z,97367.47
2019-04-14T10:53:45.937Z,97371.56
2019-04-14T10:54:37.552Z,97373.27
2019-04-14T10:55:27.903Z,97358.80
2019-04-14T10:56:18.301Z,97368.91
2019-04-14T10:57:09.516Z,97365.63
2019-04-14T10:58:00.421Z,97368.91
2019-04-14T10:58:51.600Z,97372.45
2019-04-14T10:59:43.098Z,97370.27
2019-04-14T11:00:34.497Z,97366.43
2019-04-14T11:01:25.561Z,97367.47